createdAt,value
2022-10-24T00:00:04.748Z,1.52
2022-10-24T00:04:57.832Z,1.60
2022-10-24T00:07:24.473Z,1.58
2022-10-24T00:09:51.133Z,1.85
2022-10-24T00:12:18.493Z,1.63
2022-10-24T00:14:45.547Z,1.75
2022-10-24T00:17:12.232Z,1.65
2022-10-24T00:19:38.920Z,1.60
2022-10-24T00:22:05.484Z,1.70
2022-10-24T00:24:32.125Z,1.70
2022-10-24T00:26:58.683Z,1.50
2022-10-24T00:29:25.220Z,1.58
2022-10-24T00:31:51.788Z,1.73
2022-10-24T00:34:18.309Z,1.75
2022-10-24T00:36:44.891Z,1.75
2022-10-24T00:39:12.155Z,1.80
2022-10-24T00:41:42.836Z,2.00
2022-10-24T00:44:19.662Z,2.20
2022-10-24T00:46:53.290Z,1.75
2022-10-24T00:49:23.955Z,1.70
2022-10-24T00:51:53.459Z,1.75
2022-10-24T00:54:20.246Z,2.03
2022-10-24T00:57:06.894Z,1.80
2022-10-24T00:59:35.251Z,2.05
2022-10-24T01:02:02.102Z,1.70
2022-10-24T01:04:28.981Z,1.65
2022-10-24T01:07:06.564Z,1.42
2022-10-24T01:09:55.272Z,2.00
2022-10-24T01:12:40.595Z,1.52
2022-10-24T01:15:13.546Z,1.70
2022-10-24T01:17:48.364Z,1.67
2022-10-24T01:20:30.413Z,1.77
2022-10-24T01:23:27.647Z,2.03
2022-10-24T01:26:31.585Z,1.83
2022-10-24T01:29:23.237Z,2.00
2022-10-24T01:31:55.569Z,2.33
2022-10-24T01:34:22.102Z,2.10
2022-10-24T01:36:58.615Z,2.30
2022-10-24T01:39:30.063Z,2.00
2022-10-24T01:41:57.592Z,1.95
2022-10-24T01:44:28.818Z,2.20
2022-10-24T01:46:58.157Z,2.13
2022-10-24T01:49:29.720Z,2.20
2022-10-24T01:51:58.202Z,1.98
2022-10-24T01:54:24.924Z,1.88
2022-10-24T01:56:51.802Z,2.33
2022-10-24T01:59:30.392Z,2.50
2022-10-24T02:02:06.066Z,2.10
2022-10-24T02:04:33.459Z,2.25
2022-10-24T02:07:04.688Z,2.30
2022-10-24T02:09:33.088Z,2.10
2022-10-24T02:12:01.120Z,2.17
2022-10-24T02:14:36.170Z,2.40
2022-10-24T02:17:03.512Z,2.22
2022-10-24T02:19:31.288Z,2.33
2022-10-24T02:22:19.697Z,1.88
2022-10-24T02:27:28.932Z,2.30
2022-10-24T02:30:02.226Z,2.15
2022-10-24T02:32:32.315Z,2.05
2022-10-24T02:34:59.362Z,2.35
2022-10-24T02:37:28.072Z,2.50
2022-10-24T02:39:56.210Z,3.22
2022-10-24T02:42:24.603Z,2.40
2022-10-24T02:44:51.675Z,2.33
2022-10-24T02:47:19.855Z,2.40
2022-10-24T02:49:46.579Z,2.88
2022-10-24T02:52:13.161Z,2.60
2022-10-24T02:54:39.780Z,2.45
2022-10-24T02:57:06.481Z,2.30
2022-10-24T02:59:33.183Z,2.30
2022-10-24T03:01:59.769Z,2.30
2022-10-24T03:04:26.334Z,3.28
2022-10-24T03:06:53.508Z,2.40
2022-10-24T03:09:20.116Z,2.50
2022-10-24T03:11:46.661Z,2.60
2022-10-24T03:14:13.265Z,2.70
2022-10-24T03:16:39.905Z,2.50
2022-10-24T03:19:06.514Z,2.53
2022-10-24T03:21:33.287Z,2.88
2022-10-24T03:23:59.961Z,2.40
2022-10-24T03:26:26.585Z,2.95
2022-10-24T03:28:53.123Z,2.65
2022-10-24T03:31:19.687Z,2.53
2022-10-24T03:33:46.290Z,2.22
2022-10-24T03:36:12.971Z,2.80
2022-10-24T03:38:39.548Z,2.22
2022-10-24T03:41:06.358Z,2.33
2022-10-24T03:43:32.940Z,2.55
2022-10-24T03:45:59.708Z,2.40
2022-10-24T03:48:27.032Z,2.92
2022-10-24T03:50:53.732Z,2.88
2022-10-24T03:53:20.276Z,2.17
2022-10-24T03:55:46.866Z,2.13
2022-10-24T03:58:13.498Z,2.20
2022-10-24T04:00:41.473Z,2.55
2022-10-24T04:03:09.757Z,2.30
2022-10-24T04:05:36.817Z,2.30
2022-10-24T04:08:03.579Z,2.70
2022-10-24T04:10:30.136Z,2.80
2022-10-24T04:12:56.767Z,2.10
2022-10-24T04:15:23.433Z,2.78
2022-10-24T04:17:50.151Z,2.40
2022-10-24T04:20:20.030Z,2.75
2022-10-24T04:22:47.540Z,2.28
2022-10-24T04:25:14.361Z,2.60
2022-10-24T04:27:40.979Z,2.17
2022-10-24T04:30:16.392Z,2.38
2022-10-24T04:32:43.696Z,2.25
2022-10-24T04:35:10.715Z,2.17
2022-10-24T04:37:37.324Z,2.00
2022-10-24T04:40:04.375Z,2.35
2022-10-24T04:42:30.923Z,2.45
2022-10-24T04:44:57.555Z,1.90
2022-10-24T04:47:24.181Z,2.10
2022-10-24T04:49:50.756Z,2.40
2022-10-24T04:52:17.287Z,2.55
2022-10-24T04:54:43.811Z,2.20
2022-10-24T04:57:10.407Z,2.00
2022-10-24T04:59:36.984Z,2.15
2022-10-24T05:02:03.718Z,2.42
2022-10-24T05:04:30.411Z,2.38
2022-10-24T05:06:57.107Z,2.80
2022-10-24T05:09:23.712Z,2.80
2022-10-24T05:11:51.068Z,2.47
2022-10-24T05:14:17.626Z,2.60
2022-10-24T05:16:44.217Z,2.00
2022-10-24T05:19:10.816Z,2.17
2022-10-24T05:21:37.415Z,2.00
2022-10-24T05:24:04.076Z,1.90
2022-10-24T05:26:31.193Z,2.10
2022-10-24T05:28:57.776Z,2.20
2022-10-24T05:31:24.408Z,2.33
2022-10-24T05:33:51.036Z,2.03
2022-10-24T05:36:17.641Z,2.05
2022-10-24T05:38:44.252Z,2.03
2022-10-24T05:41:10.816Z,3.22
2022-10-24T05:43:37.387Z,1.98
2022-10-24T05:46:04.193Z,2.30
2022-10-24T05:48:30.795Z,2.70
2022-10-24T05:50:58.006Z,1.95
2022-10-24T05:53:25.970Z,2.13
2022-10-24T05:55:52.662Z,2.30
2022-10-24T05:58:21.384Z,2.15
2022-10-24T06:00:53.983Z,2.63
2022-10-24T06:03:21.108Z,2.40
2022-10-24T06:05:47.672Z,2.38
2022-10-24T06:08:14.453Z,2.20
2022-10-24T06:10:41.011Z,2.20
2022-10-24T06:13:07.930Z,2.30
2022-10-24T06:15:34.519Z,2.40
2022-10-24T06:18:01.175Z,2.08
2022-10-24T06:20:27.824Z,4.40
2022-10-24T06:22:54.408Z,2.05
2022-10-24T06:25:21.063Z,2.17
2022-10-24T06:27:48.631Z,1.90
2022-10-24T06:30:15.340Z,2.40
2022-10-24T06:32:44.403Z,1.85
2022-10-24T06:35:13.512Z,2.20
2022-10-24T06:37:42.877Z,2.55
2022-10-24T06:40:12.358Z,2.35
2022-10-24T06:42:38.959Z,3.83
2022-10-24T06:45:05.946Z,2.28
2022-10-24T06:47:32.580Z,1.80
2022-10-24T06:49:59.204Z,1.80
2022-10-24T06:52:25.795Z,2.30
2022-10-24T06:54:52.392Z,1.70
2022-10-24T06:57:19.040Z,1.70
2022-10-24T06:59:45.721Z,2.00
2022-10-24T07:02:16.622Z,1.88
2022-10-24T07:04:43.343Z,1.92
2022-10-24T07:07:17.488Z,1.90
2022-10-24T07:09:44.690Z,2.47
2022-10-24T07:12:11.733Z,2.00
2022-10-24T07:14:38.312Z,1.77
2022-10-24T07:17:06.191Z,1.73
2022-10-24T07:19:36.521Z,1.63
2022-10-24T07:22:03.964Z,1.60
2022-10-24T07:24:30.548Z,2.80
2022-10-24T07:26:57.386Z,1.50
2022-10-24T07:29:24.281Z,1.90
2022-10-24T07:31:51.181Z,2.28
2022-10-24T07:34:17.856Z,1.40
2022-10-24T07:36:44.712Z,1.77
2022-10-24T07:39:12.585Z,1.90
2022-10-24T07:41:41.838Z,1.45
2022-10-24T07:44:09.326Z,1.52
2022-10-24T07:46:35.942Z,1.73
2022-10-24T07:49:02.548Z,1.50
2022-10-24T07:51:29.856Z,1.40
2022-10-24T07:53:58.631Z,1.75
2022-10-24T07:56:25.366Z,1.45
2022-10-24T07:58:51.982Z,1.40
2022-10-24T08:01:21.910Z,1.73
2022-10-24T08:03:49.112Z,1.40
2022-10-24T08:06:18.727Z,1.58
2022-10-24T08:08:45.457Z,1.35
2022-10-24T08:11:17.453Z,1.50
2022-10-24T08:13:44.588Z,1.30
2022-10-24T08:16:13.249Z,1.42
2022-10-24T08:18:40.126Z,1.20
2022-10-24T08:21:09.590Z,1.08
2022-10-24T08:23:38.559Z,1.70
2022-10-24T08:26:09.541Z,1.23
2022-10-24T08:28:36.503Z,1.20
2022-10-24T08:31:05.674Z,1.02
2022-10-24T08:33:33.041Z,1.05
2022-10-24T08:36:01.878Z,1.58
2022-10-24T08:38:28.870Z,1.75
2022-10-24T08:40:56.551Z,1.45
2022-10-24T08:43:23.892Z,1.40
2022-10-24T08:46:08.686Z,1.38
2022-10-24T08:48:42.760Z,1.30
2022-10-24T08:51:38.526Z,1.42
2022-10-24T08:54:06.309Z,1.60
2022-10-24T08:56:33.992Z,1.52
2022-10-24T08:59:02.171Z,1.30
2022-10-24T09:01:36.353Z,1.00
2022-10-24T09:04:05.732Z,1.42
2022-10-24T09:06:33.295Z,1.38
2022-10-24T09:09:03.075Z,2.17
2022-10-24T09:11:38.616Z,1.40
2022-10-24T09:14:27.958Z,1.25
2022-10-24T09:17:15.656Z,1.13
2022-10-24T09:20:00.090Z,1.50
2022-10-24T09:22:29.416Z,1.20
2022-10-24T09:25:05.451Z,1.30
2022-10-24T09:27:39.946Z,1.33
2022-10-24T09:30:08.452Z,1.25
2022-10-24T09:35:29.753Z,1.35
2022-10-24T09:37:58.870Z,1.30
2022-10-24T09:40:27.885Z,1.38
2022-10-24T09:43:02.993Z,1.15
2022-10-24T09:45:38.032Z,1.10
2022-10-24T09:48:15.008Z,1.27
2022-10-24T09:50:42.618Z,1.40
2022-10-24T09:53:25.243Z,1.30
2022-10-24T09:55:58.620Z,1.10
2022-10-24T09:58:35.620Z,1.48
2022-10-24T10:01:16.134Z,1.08
2022-10-24T10:03:43.360Z,1.02
2022-10-24T10:06:18.788Z,1.17
2022-10-24T10:08:55.032Z,1.10
2022-10-24T10:11:27.515Z,1.50
2022-10-24T10:13:55.466Z,1.55
2022-10-24T10:16:29.809Z,1.30
2022-10-24T10:19:15.942Z,2.10
2022-10-24T10:22:20.777Z,1.13
2022-10-24T10:24:47.644Z,1.80
2022-10-24T10:27:35.213Z,1.83
2022-10-24T10:30:15.105Z,1.45
2022-10-24T10:33:23.392Z,1.23
2022-10-24T10:38:51.315Z,1.10
2022-10-24T10:41:23.653Z,1.25
2022-10-24T10:44:09.047Z,1.10
2022-10-24T10:47:00.277Z,1.20
2022-10-24T10:49:33.168Z,0.93
2022-10-24T10:52:07.407Z,1.10
2022-10-24T10:55:05.712Z,0.93
2022-10-24T11:00:16.099Z,1.05
2022-10-24T11:03:35.199Z,1.17
2022-10-24T11:06:04.800Z,1.13
2022-10-24T11:08:59.162Z,1.10
2022-10-24T11:11:30.502Z,1.40
2022-10-24T11:14:28.698Z,1.02
2022-10-24T11:19:50.793Z,1.58
2022-10-24T11:22:23.166Z,1.10
2022-10-24T11:25:01.832Z,0.88
2022-10-24T11:27:35.077Z,1.38
2022-10-24T11:30:01.567Z,1.40
2022-10-24T11:32:33.026Z,1.00
2022-10-24T11:35:14.764Z,1.25
2022-10-24T11:37:42.892Z,1.15
2022-10-24T11:40:15.674Z,1.30
2022-10-24T11:42:49.846Z,1.27
2022-10-24T11:45:22.287Z,1.65
2022-10-24T11:48:27.223Z,1.35
2022-10-24T11:51:02.312Z,1.58
2022-10-24T11:53:28.803Z,1.10
2022-10-24T11:56:00.180Z,1.13
2022-10-24T11:58:28.247Z,1.40
2022-10-24T12:01:31.311Z,0.98
2022-10-24T12:04:11.646Z,1.10
2022-10-24T12:06:38.235Z,1.10
2022-10-24T12:09:29.516Z,1.23
2022-10-24T12:12:36.905Z,1.30
2022-10-24T12:15:17.905Z,1.45
2022-10-24T12:18:26.408Z,1.05
2022-10-24T12:20:59.937Z,1.00
2022-10-24T12:23:29.816Z,1.48
2022-10-24T12:26:06.801Z,1.52
2022-10-24T12:28:34.032Z,1.25
2022-10-24T12:31:14.862Z,1.08
2022-10-24T12:33:47.340Z,1.25
2022-10-24T12:36:14.155Z,1.15
2022-10-24T12:38:41.020Z,1.50
2022-10-24T12:41:33.079Z,1.45
2022-10-24T12:44:24.463Z,1.30
2022-10-24T12:46:50.984Z,0.90
2022-10-24T12:49:28.352Z,0.95
2022-10-24T12:51:56.671Z,1.30
2022-10-24T12:54:45.416Z,1.55
2022-10-24T12:57:11.973Z,1.40
2022-10-24T12:59:49.708Z,1.15
2022-10-24T13:02:16.429Z,1.38
2022-10-24T13:04:55.528Z,1.20
2022-10-24T13:07:49.804Z,1.00
2022-10-24T13:10:51.168Z,1.15
2022-10-24T13:13:43.921Z,1.17
2022-10-24T13:16:19.753Z,1.30
2022-10-24T13:18:58.431Z,1.30
2022-10-24T13:24:24.882Z,1.40
2022-10-24T13:26:55.855Z,1.70
2022-10-24T13:29:28.178Z,1.25
2022-10-24T13:32:17.435Z,1.38
2022-10-24T13:34:52.614Z,1.20
2022-10-24T13:37:24.981Z,1.10
2022-10-24T13:39:57.457Z,1.40
2022-10-24T13:42:37.628Z,1.42
2022-10-24T13:45:38.805Z,1.30
2022-10-24T13:48:13.226Z,1.00
2022-10-24T13:50:49.559Z,1.40
2022-10-24T13:53:27.689Z,1.20
2022-10-24T13:55:59.121Z,1.60
2022-10-24T13:58:26.724Z,1.52
2022-10-24T14:00:58.009Z,1.13
2022-10-24T14:03:27.668Z,1.45
2022-10-24T14:05:59.802Z,1.85
2022-10-24T14:08:28.701Z,1.85
2022-10-24T14:10:56.333Z,1.60
2022-10-24T14:13:24.456Z,1.20
2022-10-24T14:15:55.319Z,1.58
2022-10-24T14:18:23.086Z,1.50
2022-10-24T14:21:03.207Z,0.93
2022-10-24T14:23:31.561Z,1.50
2022-10-24T14:26:00.184Z,1.40
2022-10-24T14:28:29.838Z,1.50
2022-10-24T14:31:05.379Z,1.40
2022-10-24T14:33:43.034Z,1.33
2022-10-24T14:36:09.977Z,1.83
2022-10-24T14:38:36.805Z,1.35
2022-10-24T14:41:09.311Z,1.40
2022-10-24T14:43:41.181Z,1.38
2022-10-24T14:46:20.254Z,1.58
2022-10-24T14:48:49.294Z,1.35
2022-10-24T14:51:39.361Z,1.60
2022-10-24T14:54:17.835Z,1.33
2022-10-24T14:56:44.753Z,1.85
2022-10-24T14:59:30.444Z,1.98
2022-10-24T15:01:59.556Z,1.20
2022-10-24T15:04:31.813Z,1.42
2022-10-24T15:06:58.391Z,1.50
2022-10-24T15:09:24.976Z,1.60
2022-10-24T15:12:02.385Z,1.10
2022-10-24T15:14:40.079Z,2.30
2022-10-24T15:17:28.409Z,1.55
2022-10-24T15:20:00.644Z,1.40
2022-10-24T15:22:35.941Z,1.17
2022-10-24T15:25:08.549Z,1.52
2022-10-24T15:27:41.578Z,1.40
2022-10-24T15:30:15.894Z,1.48
2022-10-24T15:32:43.042Z,1.70
2022-10-24T15:35:09.961Z,1.52
2022-10-24T15:37:37.089Z,1.40
2022-10-24T15:40:06.114Z,1.75
2022-10-24T15:42:32.683Z,1.40
2022-10-24T15:44:59.350Z,1.30
2022-10-24T15:47:25.967Z,1.40
2022-10-24T15:49:52.594Z,1.35
2022-10-24T15:52:19.137Z,1.20
2022-10-24T15:54:45.743Z,1.50
2022-10-24T15:57:13.387Z,1.65
2022-10-24T15:59:40.205Z,1.47
2022-10-24T16:02:14.927Z,1.60
2022-10-24T16:04:42.434Z,1.30
2022-10-24T16:09:42.337Z,1.50
2022-10-24T16:12:11.413Z,1.75
2022-10-24T16:14:38.060Z,1.27
2022-10-24T16:17:04.588Z,1.20
2022-10-24T16:19:31.152Z,1.48
2022-10-24T16:21:58.626Z,1.30
2022-10-24T16:24:26.394Z,1.53
2022-10-24T16:26:53.025Z,1.40
2022-10-24T16:29:19.845Z,1.45
2022-10-24T16:31:48.863Z,1.33
2022-10-24T16:34:15.428Z,1.00
2022-10-24T16:36:42.167Z,1.38
2022-10-24T16:39:09.407Z,1.20
2022-10-24T16:44:04.552Z,2.83
2022-10-24T16:46:31.117Z,1.20
2022-10-24T16:48:57.722Z,1.55
2022-10-24T16:51:32.025Z,1.20
2022-10-24T16:54:00.587Z,0.77
2022-10-24T16:56:27.266Z,1.65
2022-10-24T16:58:53.806Z,1.20
2022-10-24T17:01:23.110Z,1.30
2022-10-24T17:03:49.811Z,1.52
2022-10-24T17:06:16.474Z,1.10
2022-10-24T17:08:43.376Z,0.90
2022-10-24T17:11:32.299Z,1.20
2022-10-24T17:13:58.150Z,1.60
2022-10-24T17:16:24.796Z,1.38
2022-10-24T17:19:05.610Z,1.25
2022-10-24T17:21:41.449Z,1.38
2022-10-24T17:24:11.119Z,1.25
2022-10-24T17:26:37.747Z,0.98
2022-10-24T17:29:04.797Z,1.20
2022-10-24T17:31:31.588Z,1.40
2022-10-24T17:33:58.327Z,1.70
2022-10-24T17:36:28.561Z,1.40
2022-10-24T17:39:13.428Z,1.05
2022-10-24T17:41:40.909Z,1.10
2022-10-24T17:44:15.777Z,1.13
2022-10-24T17:46:42.682Z,1.35
2022-10-24T17:49:10.796Z,1.30
2022-10-24T17:51:39.952Z,1.55
2022-10-24T17:54:09.154Z,1.30
2022-10-24T17:56:35.813Z,1.35
2022-10-24T17:59:02.443Z,1.52
2022-10-24T18:01:29.188Z,1.35
2022-10-24T18:03:55.820Z,1.40
2022-10-24T18:06:22.422Z,1.23
2022-10-24T18:08:53.057Z,2.10
2022-10-24T18:11:19.978Z,1.40
2022-10-24T18:13:46.534Z,1.20
2022-10-24T18:16:15.464Z,1.50
2022-10-24T18:18:42.939Z,1.23
2022-10-24T18:21:24.767Z,1.42
2022-10-24T18:23:52.831Z,1.55
2022-10-24T18:26:22.639Z,1.10
2022-10-24T18:28:50.845Z,1.13
2022-10-24T18:31:19.668Z,1.20
2022-10-24T18:33:46.800Z,1.52
2022-10-24T18:36:16.007Z,1.13
2022-10-24T18:38:43.085Z,1.48
2022-10-24T18:41:26.025Z,1.50
2022-10-24T18:43:52.802Z,1.25
2022-10-24T18:46:19.840Z,1.45
2022-10-24T18:48:46.849Z,1.73
2022-10-24T18:51:41.639Z,1.60
2022-10-24T18:54:12.686Z,1.52
2022-10-24T18:56:39.500Z,1.42
2022-10-24T18:59:20.358Z,1.63
2022-10-24T19:02:19.573Z,2.22
2022-10-24T19:04:50.837Z,1.52
2022-10-24T19:07:19.010Z,1.75
2022-10-24T19:09:45.732Z,1.65
2022-10-24T19:12:12.449Z,1.85
2022-10-24T19:14:39.689Z,1.13
2022-10-24T19:17:07.251Z,1.75
2022-10-24T19:19:36.661Z,1.40
2022-10-24T19:22:03.279Z,1.40
2022-10-24T19:24:29.820Z,1.42
2022-10-24T19:26:56.392Z,1.77
2022-10-24T19:29:22.960Z,1.27
2022-10-24T19:31:49.506Z,1.98
2022-10-24T19:34:16.101Z,1.70
2022-10-24T19:36:42.670Z,1.92
2022-10-24T19:39:09.604Z,1.73
2022-10-24T19:41:36.656Z,1.42
2022-10-24T19:44:04.247Z,1.52
2022-10-24T19:46:30.826Z,1.40
2022-10-24T19:48:57.483Z,1.60
2022-10-24T19:51:25.248Z,2.13
2022-10-24T19:53:52.211Z,1.65
2022-10-24T19:56:23.907Z,1.58
2022-10-24T19:58:51.801Z,1.60
2022-10-24T20:01:20.894Z,1.80
2022-10-24T20:03:48.756Z,1.85
2022-10-24T20:06:15.704Z,1.77
2022-10-24T20:08:42.379Z,1.88
2022-10-24T20:11:09.477Z,1.60
2022-10-24T20:13:36.323Z,2.10
2022-10-24T20:16:07.010Z,1.85
2022-10-24T20:18:35.620Z,1.77
2022-10-24T20:21:06.567Z,1.77
2022-10-24T20:23:33.454Z,1.92
2022-10-24T20:26:03.288Z,1.92
2022-10-24T20:28:33.882Z,1.60
2022-10-24T20:31:00.468Z,1.90
2022-10-24T20:33:27.080Z,1.80
2022-10-24T20:35:58.156Z,1.73
2022-10-24T20:38:24.831Z,1.50
2022-10-24T20:40:51.490Z,1.70
2022-10-24T20:43:18.056Z,1.48
2022-10-24T20:45:44.671Z,2.17
2022-10-24T20:48:11.312Z,2.25
2022-10-24T20:50:37.863Z,1.30
2022-10-24T20:53:04.461Z,1.80
2022-10-24T20:55:43.446Z,1.75
2022-10-24T20:58:14.205Z,1.50
2022-10-24T21:03:14.358Z,1.73
2022-10-24T21:08:07.499Z,1.60
2022-10-24T21:10:35.130Z,1.73
2022-10-24T21:13:01.943Z,1.37
2022-10-24T21:15:28.516Z,2.08
2022-10-24T21:17:55.069Z,1.65
2022-10-24T21:20:21.669Z,1.77
2022-10-24T21:22:48.211Z,1.45
2022-10-24T21:25:14.870Z,1.65
2022-10-24T21:27:41.399Z,1.73
2022-10-24T21:30:13.523Z,1.60
2022-10-24T21:32:41.294Z,1.60
2022-10-24T21:35:07.912Z,2.10
2022-10-24T21:37:34.561Z,1.40
2022-10-24T21:40:01.125Z,1.58
2022-10-24T21:42:30.025Z,1.90
2022-10-24T21:44:56.728Z,1.90
2022-10-24T21:47:23.302Z,1.80
2022-10-24T21:49:49.856Z,1.83
2022-10-24T21:52:16.436Z,2.15
2022-10-24T21:54:43.052Z,1.40
2022-10-24T21:57:09.585Z,1.40
2022-10-24T21:59:36.286Z,1.38
2022-10-24T22:02:03.079Z,1.85
2022-10-24T22:04:29.807Z,1.80
2022-10-24T22:06:56.371Z,2.30
2022-10-24T22:09:23.919Z,1.80
2022-10-24T22:11:50.915Z,2.10
2022-10-24T22:14:18.056Z,2.20
2022-10-24T22:16:45.183Z,1.80
2022-10-24T22:19:12.724Z,1.75
2022-10-24T22:21:43.939Z,1.50
2022-10-24T22:24:19.848Z,1.30
2022-10-24T22:26:47.071Z,1.63
2022-10-24T22:29:19.821Z,1.73
2022-10-24T22:31:47.473Z,1.92
2022-10-24T22:34:20.817Z,1.80
2022-10-24T22:36:47.300Z,2.20
2022-10-24T22:39:19.867Z,2.05
2022-10-24T22:41:47.524Z,2.17
2022-10-24T22:44:16.495Z,2.30
2022-10-24T22:46:46.065Z,2.38
2022-10-24T22:49:38.617Z,2.15
2022-10-24T22:52:05.584Z,2.78
2022-10-24T22:54:35.475Z,2.60
2022-10-24T22:57:04.342Z,3.00
2022-10-24T22:59:31.418Z,2.28
2022-10-24T23:02:38.022Z,2.20
2022-10-24T23:05:07.790Z,2.17
2022-10-24T23:07:46.185Z,2.35
2022-10-24T23:12:42.249Z,2.30
2022-10-24T23:15:15.843Z,2.67
2022-10-24T23:17:43.316Z,2.88
2022-10-24T23:20:35.804Z,2.90
2022-10-24T23:23:16.361Z,2.58
2022-10-24T23:25:49.638Z,3.47
2022-10-24T23:28:30.835Z,2.35
2022-10-24T23:30:57.728Z,3.10
2022-10-24T23:33:29.441Z,3.03
2022-10-24T23:35:58.865Z,2.80
2022-10-24T23:38:25.821Z,1.95
2022-10-24T23:40:52.952Z,2.65
2022-10-24T23:43:20.876Z,3.03
2022-10-24T23:45:58.210Z,2.70
2022-10-24T23:48:57.315Z,2.70
2022-10-24T23:51:31.156Z,3.13
2022-10-24T23:53:58.347Z,2.63
2022-10-24T23:56:29.431Z,2.60
2022-10-24T23:58:56.440Z,2.78
